createdAt,value
2023-02-19T00:00:00.468Z,19.30
2023-02-19T00:02:29.123Z,22.60
2023-02-19T00:04:57.420Z,32.90
2023-02-19T00:07:25.798Z,24.60
2023-02-19T00:09:54.390Z,24.60
2023-02-19T00:12:22.747Z,29.90
2023-02-19T00:14:50.947Z,26.30
2023-02-19T00:17:19.220Z,21.70
2023-02-19T00:19:47.415Z,26.20
2023-02-19T00:22:15.686Z,26.90
2023-02-19T00:24:44.183Z,38.50
2023-02-19T00:27:12.660Z,31.70
2023-02-19T00:29:41.176Z,28.40
2023-02-19T00:32:09.557Z,21.80
2023-02-19T00:34:37.914Z,27.60
2023-02-19T00:37:06.097Z,22.60
2023-02-19T00:39:34.581Z,22.30
2023-02-19T00:42:03.073Z,20.60
2023-02-19T00:44:31.866Z,23.50
2023-02-19T00:47:00.248Z,22.10
2023-02-19T00:49:28.819Z,21.30
2023-02-19T00:51:57.224Z,20.10
2023-02-19T00:54:25.710Z,20.30
2023-02-19T00:56:54.096Z,22.30
2023-02-19T00:59:22.479Z,16.70
2023-02-19T01:01:51.047Z,26.70
2023-02-19T01:04:19.844Z,25.30
2023-02-19T01:06:49.212Z,20.00
2023-02-19T01:09:17.652Z,21.00
2023-02-19T01:11:46.242Z,21.20
2023-02-19T01:14:14.933Z,19.10
2023-02-19T01:16:43.526Z,22.20
2023-02-19T01:19:12.386Z,19.90
2023-02-19T01:21:41.795Z,18.30
2023-02-19T01:24:11.444Z,16.70
2023-02-19T01:26:40.911Z,13.30
2023-02-19T01:29:10.045Z,15.20
2023-02-19T01:31:41.116Z,17.90
2023-02-19T01:34:12.178Z,13.30
2023-02-19T01:36:41.233Z,19.60
2023-02-19T01:39:11.244Z,19.40
2023-02-19T01:41:41.897Z,14.10
2023-02-19T01:44:18.672Z,13.90
2023-02-19T01:46:48.801Z,16.10
2023-02-19T01:49:26.394Z,14.60
2023-02-19T01:52:15.130Z,18.00
2023-02-19T01:54:45.764Z,17.70
2023-02-19T01:57:19.791Z,16.20
2023-02-19T01:59:55.018Z,10.90
2023-02-19T02:02:28.680Z,13.70
2023-02-19T02:05:00.325Z,14.60
2023-02-19T02:07:47.682Z,18.20
2023-02-19T02:10:22.292Z,12.90
2023-02-19T02:12:52.784Z,12.80
2023-02-19T02:15:22.598Z,12.50
2023-02-19T02:18:05.956Z,19.80
2023-02-19T02:21:19.319Z,13.30
2023-02-19T02:24:09.648Z,17.00
2023-02-19T02:26:56.510Z,14.80
2023-02-19T02:30:03.329Z,11.10
2023-02-19T02:33:05.263Z,11.70
2023-02-19T02:35:40.055Z,14.30
2023-02-19T02:38:11.877Z,14.90
2023-02-19T02:40:43.730Z,13.50
2023-02-19T02:43:13.286Z,16.60
2023-02-19T02:45:42.270Z,13.10
2023-02-19T02:48:31.552Z,7.70
2023-02-19T02:51:21.525Z,12.80
2023-02-19T02:54:21.732Z,9.60
2023-02-19T02:56:51.470Z,10.40
2023-02-19T02:59:25.243Z,9.00
2023-02-19T03:02:14.458Z,8.90
2023-02-19T03:05:32.229Z,10.40
2023-02-19T03:08:06.545Z,10.10
2023-02-19T03:11:20.776Z,12.50
2023-02-19T03:14:12.695Z,11.50
2023-02-19T03:17:04.429Z,9.10
2023-02-19T03:19:38.937Z,18.20
2023-02-19T03:22:20.333Z,7.60
2023-02-19T03:25:16.133Z,10.20
2023-02-19T03:27:46.983Z,8.50
2023-02-19T03:30:21.818Z,7.60
2023-02-19T03:32:57.654Z,12.90
2023-02-19T03:35:30.878Z,6.90
2023-02-19T03:38:26.716Z,7.70
2023-02-19T03:41:11.871Z,6.80
2023-02-19T03:43:51.975Z,8.20
2023-02-19T03:46:35.558Z,8.00
2023-02-19T03:49:24.865Z,7.20
2023-02-19T03:52:45.763Z,5.40
2023-02-19T03:55:23.062Z,6.20
2023-02-19T03:57:58.292Z,7.40
2023-02-19T04:00:44.382Z,6.00
2023-02-19T04:03:47.041Z,8.20
2023-02-19T04:06:22.993Z,7.10
2023-02-19T04:08:56.501Z,5.00
2023-02-19T04:11:27.039Z,6.70
2023-02-19T04:14:15.379Z,4.40
2023-02-19T04:19:18.691Z,7.30
2023-02-19T04:21:50.755Z,7.10
2023-02-19T04:24:35.005Z,6.90
2023-02-19T04:27:05.034Z,4.90
2023-02-19T04:29:33.507Z,6.90
2023-02-19T04:32:01.900Z,4.70
2023-02-19T04:34:32.429Z,3.90
2023-02-19T04:37:00.911Z,5.00
2023-02-19T04:39:29.296Z,8.40
2023-02-19T04:41:58.392Z,7.50
2023-02-19T04:44:27.186Z,5.70
2023-02-19T04:46:56.200Z,9.60
2023-02-19T04:49:25.496Z,6.10
2023-02-19T04:51:53.872Z,4.70
2023-02-19T04:54:22.059Z,8.50
2023-02-19T04:56:50.968Z,6.70
2023-02-19T04:59:19.337Z,6.20
2023-02-19T05:01:47.680Z,8.00
2023-02-19T05:04:16.265Z,5.30
2023-02-19T05:06:44.804Z,4.50
2023-02-19T05:09:13.083Z,7.10
2023-02-19T05:11:41.584Z,10.40
2023-02-19T05:14:09.746Z,10.30
2023-02-19T05:16:38.028Z,10.00
2023-02-19T05:19:06.205Z,23.60
2023-02-19T05:21:34.598Z,6.20
2023-02-19T05:24:02.875Z,7.30
2023-02-19T05:26:31.481Z,7.50
2023-02-19T05:29:00.157Z,12.60
2023-02-19T05:31:29.207Z,7.10
2023-02-19T05:33:57.942Z,9.30
2023-02-19T05:36:26.841Z,8.10
2023-02-19T05:38:59.099Z,9.00
2023-02-19T05:41:29.339Z,9.20
2023-02-19T05:43:58.765Z,10.60
2023-02-19T05:46:30.165Z,5.70
2023-02-19T05:48:59.830Z,8.00
2023-02-19T05:51:28.637Z,5.90
2023-02-19T05:53:57.928Z,7.00
2023-02-19T05:56:26.298Z,9.60
2023-02-19T05:58:55.195Z,9.10
2023-02-19T06:01:26.126Z,16.00
2023-02-19T06:03:57.360Z,10.80
2023-02-19T06:06:27.054Z,6.00
2023-02-19T06:08:55.593Z,11.70
2023-02-19T06:11:24.900Z,7.90
2023-02-19T06:13:53.171Z,5.30
2023-02-19T06:16:22.342Z,7.10
2023-02-19T06:18:50.865Z,6.10
2023-02-19T06:21:20.122Z,14.50
2023-02-19T06:23:48.490Z,8.70
2023-02-19T06:26:23.084Z,6.00
2023-02-19T06:28:53.609Z,5.50
2023-02-19T06:31:24.130Z,7.70
2023-02-19T06:33:52.764Z,15.00
2023-02-19T06:36:22.189Z,13.60
2023-02-19T06:38:51.281Z,12.10
2023-02-19T06:41:19.639Z,11.60
2023-02-19T06:43:48.426Z,9.60
2023-02-19T06:46:17.244Z,8.20
2023-02-19T06:48:46.342Z,7.00
2023-02-19T06:51:24.024Z,6.20
2023-02-19T06:53:52.406Z,5.30
2023-02-19T06:56:29.712Z,4.30
2023-02-19T06:59:00.630Z,4.10
2023-02-19T07:01:32.801Z,2.60
2023-02-19T07:04:01.938Z,3.70
2023-02-19T07:06:30.791Z,5.00
2023-02-19T07:08:59.606Z,4.70
2023-02-19T07:11:31.675Z,9.20
2023-02-19T07:14:03.007Z,3.80
2023-02-19T07:16:32.060Z,4.50
2023-02-19T07:19:06.471Z,9.70
2023-02-19T07:21:38.002Z,3.40
2023-02-19T07:24:07.397Z,6.80
2023-02-19T07:26:35.900Z,7.90
2023-02-19T07:29:04.980Z,2.90
2023-02-19T07:31:33.523Z,3.50
2023-02-19T07:34:01.753Z,7.00
2023-02-19T07:36:30.335Z,4.60
2023-02-19T07:39:00.097Z,5.10
2023-02-19T07:41:28.548Z,4.40
2023-02-19T07:43:59.385Z,4.50
2023-02-19T07:46:28.070Z,3.90
2023-02-19T07:48:56.665Z,4.30
2023-02-19T07:51:26.073Z,10.70
2023-02-19T07:53:54.456Z,6.80
2023-02-19T07:56:22.844Z,3.20
2023-02-19T07:58:51.123Z,5.60
2023-02-19T08:01:44.338Z,4.80
2023-02-19T08:04:26.779Z,3.80
2023-02-19T08:06:55.376Z,4.80
2023-02-19T08:09:23.546Z,3.20
2023-02-19T08:12:10.874Z,4.40
2023-02-19T08:14:39.260Z,2.40
2023-02-19T08:17:07.864Z,3.60
2023-02-19T08:19:36.422Z,1.90
2023-02-19T08:22:04.912Z,2.80
2023-02-19T08:24:34.212Z,19.70
2023-02-19T08:27:02.502Z,5.90
2023-02-19T08:29:31.086Z,3.00
2023-02-19T08:31:59.596Z,3.40
2023-02-19T08:34:28.163Z,2.60
2023-02-19T08:36:56.655Z,2.10
2023-02-19T08:39:24.836Z,3.00
2023-02-19T08:41:53.232Z,2.00
2023-02-19T08:44:21.800Z,2.60
2023-02-19T08:46:51.212Z,1.80
2023-02-19T08:49:20.015Z,5.20
2023-02-19T08:51:48.803Z,2.10
2023-02-19T08:54:17.285Z,3.00
2023-02-19T08:56:45.679Z,5.20
2023-02-19T08:59:13.951Z,5.00
2023-02-19T09:01:42.170Z,3.40
2023-02-19T09:04:13.240Z,4.40
2023-02-19T09:06:41.553Z,3.50
2023-02-19T09:09:09.841Z,3.30
2023-02-19T09:11:41.228Z,2.80
2023-02-19T09:14:09.877Z,2.40
2023-02-19T09:16:38.264Z,5.00
2023-02-19T09:19:06.648Z,3.80
2023-02-19T09:21:35.031Z,2.10
2023-02-19T09:24:03.938Z,3.70
2023-02-19T09:26:32.314Z,2.90
2023-02-19T09:29:00.704Z,4.90
2023-02-19T09:31:29.208Z,4.00
2023-02-19T09:33:57.572Z,2.00
2023-02-19T09:36:26.167Z,9.40
2023-02-19T09:38:54.649Z,4.80
2023-02-19T09:41:34.289Z,3.40
2023-02-19T09:44:06.888Z,3.70
2023-02-19T09:46:42.558Z,3.40
2023-02-19T09:49:25.108Z,2.30
2023-02-19T09:52:08.165Z,2.60
2023-02-19T09:54:38.689Z,3.40
2023-02-19T09:57:15.383Z,4.60
2023-02-19T09:59:52.026Z,4.50
2023-02-19T10:02:24.321Z,7.20
2023-02-19T10:04:53.962Z,4.40
2023-02-19T10:07:33.445Z,4.80
2023-02-19T10:10:14.336Z,6.50
2023-02-19T10:12:50.693Z,5.50
2023-02-19T10:15:31.452Z,4.80
2023-02-19T10:18:00.177Z,8.00
2023-02-19T10:20:28.424Z,4.30
2023-02-19T10:23:08.273Z,9.90
2023-02-19T10:25:40.437Z,5.20
2023-02-19T10:28:17.215Z,5.90
2023-02-19T10:30:52.233Z,3.40
2023-02-19T10:33:21.831Z,6.20
2023-02-19T10:35:57.727Z,6.90
2023-02-19T10:38:48.307Z,5.00
2023-02-19T10:41:20.989Z,3.60
2023-02-19T10:44:15.270Z,3.80
2023-02-19T10:46:51.092Z,10.90
2023-02-19T10:49:35.923Z,6.10
2023-02-19T10:52:18.106Z,12.90
2023-02-19T10:54:52.291Z,5.40
2023-02-19T10:57:30.245Z,11.20
2023-02-19T11:00:15.365Z,3.50
2023-02-19T11:02:45.361Z,5.50
2023-02-19T11:05:16.861Z,4.40
2023-02-19T11:07:47.480Z,5.20
2023-02-19T11:10:28.260Z,8.40
2023-02-19T11:13:02.463Z,5.70
2023-02-19T11:15:34.223Z,6.30
2023-02-19T11:18:22.365Z,7.60
2023-02-19T11:21:02.319Z,9.80
2023-02-19T11:23:36.083Z,4.80
2023-02-19T11:26:16.282Z,3.30
2023-02-19T11:28:44.850Z,4.30
2023-02-19T11:31:23.087Z,3.50
2023-02-19T11:34:26.301Z,5.10
2023-02-19T11:37:13.763Z,8.40
2023-02-19T11:39:47.605Z,9.10
2023-02-19T11:42:39.602Z,7.60
2023-02-19T11:45:20.780Z,8.50
2023-02-19T11:48:13.932Z,4.10
2023-02-19T11:51:20.166Z,5.30
2023-02-19T11:54:01.245Z,4.50
2023-02-19T11:56:39.359Z,8.20
2023-02-19T11:59:38.745Z,9.20
2023-02-19T12:02:25.644Z,3.70
2023-02-19T12:04:56.936Z,6.10
2023-02-19T12:07:46.982Z,9.10
2023-02-19T12:10:32.864Z,6.60
2023-02-19T12:13:27.647Z,7.80
2023-02-19T12:16:18.248Z,7.50
2023-02-19T12:19:14.864Z,11.00
2023-02-19T12:21:56.758Z,12.80
2023-02-19T12:24:43.254Z,8.80
2023-02-19T12:27:33.745Z,6.80
2023-02-19T12:30:35.809Z,11.90
2023-02-19T12:33:42.768Z,14.10
2023-02-19T12:36:37.659Z,8.30
2023-02-19T12:39:15.446Z,7.30
2023-02-19T12:41:53.582Z,5.90
2023-02-19T12:44:45.291Z,8.90
2023-02-19T12:47:23.688Z,11.50
2023-02-19T12:50:08.743Z,14.60
2023-02-19T12:52:41.982Z,10.60
2023-02-19T12:55:26.073Z,15.20
2023-02-19T12:57:55.782Z,15.70
2023-02-19T13:00:44.247Z,13.80
2023-02-19T13:03:31.046Z,14.20
2023-02-19T13:06:03.628Z,13.30
2023-02-19T13:08:42.124Z,11.50
2023-02-19T13:11:25.203Z,11.70
2023-02-19T13:14:19.792Z,18.70
2023-02-19T13:19:18.459Z,17.40
2023-02-19T13:22:17.030Z,15.60
2023-02-19T13:24:47.161Z,16.90
2023-02-19T13:27:33.038Z,16.30
2023-02-19T13:30:32.964Z,12.90
2023-02-19T13:33:04.292Z,15.30
2023-02-19T13:36:11.050Z,16.20
2023-02-19T13:38:43.499Z,11.70
2023-02-19T13:41:50.558Z,10.50
2023-02-19T13:44:22.293Z,11.90
2023-02-19T13:46:51.663Z,12.40
2023-02-19T13:49:29.262Z,18.00
2023-02-19T13:52:22.610Z,18.10
2023-02-19T13:54:51.607Z,14.00
2023-02-19T13:57:26.646Z,21.60
2023-02-19T13:59:57.291Z,22.70
2023-02-19T14:02:31.563Z,22.70
2023-02-19T14:05:01.754Z,23.70
2023-02-19T14:07:49.558Z,40.20
2023-02-19T14:10:49.152Z,27.80
2023-02-19T14:13:52.528Z,25.80
2023-02-19T14:16:56.011Z,39.30
2023-02-19T14:19:56.636Z,32.20
2023-02-19T14:22:55.563Z,17.60
2023-02-19T14:25:49.541Z,21.60
2023-02-19T14:30:58.679Z,21.40
2023-02-19T14:33:34.240Z,25.10
2023-02-19T14:36:31.316Z,21.10
2023-02-19T14:39:06.979Z,17.10
2023-02-19T14:41:40.073Z,20.30
2023-02-19T14:44:18.171Z,15.90
2023-02-19T14:46:50.645Z,17.40
2023-02-19T14:49:45.956Z,17.00
2023-02-19T14:52:44.626Z,18.80
2023-02-19T14:55:37.458Z,18.00
2023-02-19T14:58:11.070Z,20.30
2023-02-19T15:00:42.973Z,20.20
2023-02-19T15:03:34.254Z,26.80
2023-02-19T15:06:14.287Z,30.20
2023-02-19T15:08:45.839Z,34.20
2023-02-19T15:11:21.293Z,32.70
2023-02-19T15:13:58.485Z,26.10
2023-02-19T15:16:29.134Z,39.20
2023-02-19T15:19:00.149Z,47.10
2023-02-19T15:21:32.013Z,52.60
2023-02-19T15:24:03.312Z,43.60
2023-02-19T15:26:55.085Z,59.30
2023-02-19T15:29:26.131Z,39.90
2023-02-19T15:32:03.359Z,42.90
2023-02-19T15:35:00.707Z,26.20
2023-02-19T15:37:33.868Z,27.60
2023-02-19T15:40:07.861Z,47.60
2023-02-19T15:42:38.407Z,30.10
2023-02-19T15:45:25.922Z,28.80
2023-02-19T15:48:18.407Z,22.20
2023-02-19T15:50:57.793Z,19.80
2023-02-19T15:53:31.402Z,18.30
2023-02-19T15:56:09.821Z,22.10
2023-02-19T15:58:46.285Z,19.10
2023-02-19T16:01:27.163Z,16.50
2023-02-19T16:03:56.720Z,22.60
2023-02-19T16:06:27.005Z,42.70
2023-02-19T16:09:02.252Z,35.80
2023-02-19T16:11:39.821Z,35.40
2023-02-19T16:14:28.088Z,25.60
2023-02-19T16:17:05.037Z,20.50
2023-02-19T16:20:02.207Z,18.90
2023-02-19T16:22:35.142Z,26.90
2023-02-19T16:25:06.954Z,29.30
2023-02-19T16:27:38.662Z,21.30
2023-02-19T16:30:18.169Z,25.00
2023-02-19T16:32:47.130Z,26.70
2023-02-19T16:35:40.104Z,18.00
2023-02-19T16:38:17.051Z,17.80
2023-02-19T16:40:48.196Z,19.90
2023-02-19T16:43:28.047Z,24.10
2023-02-19T16:45:57.788Z,17.10
2023-02-19T16:48:26.352Z,23.70
2023-02-19T16:50:55.247Z,16.20
2023-02-19T16:53:29.054Z,20.60
2023-02-19T16:58:26.980Z,15.40
2023-02-19T17:00:56.334Z,16.70
2023-02-19T17:03:26.025Z,19.60
2023-02-19T17:05:54.653Z,23.50
2023-02-19T17:08:29.680Z,23.30
2023-02-19T17:10:59.362Z,22.40
2023-02-19T17:13:29.505Z,22.70
2023-02-19T17:15:58.414Z,25.40
2023-02-19T17:18:27.047Z,22.40
2023-02-19T17:21:00.619Z,27.10
2023-02-19T17:23:29.316Z,23.20
2023-02-19T17:25:57.899Z,27.90
2023-02-19T17:28:26.385Z,30.60
2023-02-19T17:30:54.875Z,26.70
2023-02-19T17:33:23.463Z,28.60
2023-02-19T17:35:51.744Z,28.10
2023-02-19T17:38:20.129Z,26.70
2023-02-19T17:40:48.406Z,30.00
2023-02-19T17:43:17.504Z,29.90
2023-02-19T17:45:45.944Z,33.40
2023-02-19T17:48:15.605Z,31.40
2023-02-19T17:50:44.722Z,22.10
2023-02-19T17:53:20.739Z,20.60
2023-02-19T17:55:49.667Z,18.70
2023-02-19T17:58:18.065Z,20.80
2023-02-19T18:00:46.437Z,17.80
2023-02-19T18:03:14.877Z,18.40
2023-02-19T18:05:43.306Z,18.40
2023-02-19T18:08:11.900Z,18.20
2023-02-19T18:10:40.481Z,18.40
2023-02-19T18:13:09.548Z,27.30
2023-02-19T18:15:37.762Z,31.30
2023-02-19T18:18:06.248Z,26.60
2023-02-19T18:20:35.257Z,27.50
2023-02-19T18:23:03.740Z,30.20
2023-02-19T18:25:32.117Z,25.90
2023-02-19T18:28:00.307Z,21.50
2023-02-19T18:30:29.974Z,21.60
2023-02-19T18:32:58.611Z,20.40
2023-02-19T18:35:26.888Z,28.10
2023-02-19T18:37:56.056Z,21.10
2023-02-19T18:40:28.572Z,20.50
2023-02-19T18:42:57.154Z,16.40
2023-02-19T18:45:26.022Z,20.00
2023-02-19T18:47:54.638Z,16.70
2023-02-19T18:50:23.441Z,17.00
2023-02-19T18:52:51.932Z,14.90
2023-02-19T18:55:20.303Z,13.60
2023-02-19T18:57:51.657Z,13.50
2023-02-19T19:00:26.547Z,11.60
2023-02-19T19:02:57.125Z,17.40
2023-02-19T19:05:26.647Z,13.50
2023-02-19T19:07:56.671Z,16.40
2023-02-19T19:10:25.692Z,15.50
2023-02-19T19:12:54.665Z,10.80
2023-02-19T19:15:23.773Z,8.30
2023-02-19T19:17:52.873Z,9.70
2023-02-19T19:20:23.728Z,10.20
2023-02-19T19:22:53.368Z,9.60
2023-02-19T19:25:23.225Z,8.50
2023-02-19T19:27:57.556Z,7.60
2023-02-19T19:30:26.042Z,9.50
2023-02-19T19:32:55.345Z,12.10
2023-02-19T19:35:23.727Z,5.50
2023-02-19T19:37:51.910Z,8.00
2023-02-19T19:40:20.904Z,8.00
2023-02-19T19:42:52.292Z,7.20
2023-02-19T19:45:21.079Z,5.90
2023-02-19T19:47:49.984Z,7.00
2023-02-19T19:50:19.321Z,14.00
2023-02-19T19:52:47.639Z,4.40
2023-02-19T19:55:16.582Z,7.80
2023-02-19T19:57:45.116Z,7.00
2023-02-19T20:00:17.899Z,7.60
2023-02-19T20:02:47.127Z,3.60
2023-02-19T20:05:16.985Z,1.80
2023-02-19T20:07:45.944Z,4.20
2023-02-19T20:10:17.029Z,2.20
2023-02-19T20:12:45.963Z,2.30
2023-02-19T20:15:19.669Z,2.60
2023-02-19T20:17:48.460Z,1.10
2023-02-19T20:20:19.682Z,1.40
2023-02-19T20:22:48.005Z,1.70
2023-02-19T20:25:16.503Z,2.50
2023-02-19T20:27:44.967Z,2.50
2023-02-19T20:30:15.358Z,2.70
2023-02-19T20:32:44.038Z,1.90
2023-02-19T20:35:12.880Z,1.70
2023-02-19T20:37:41.674Z,3.10
2023-02-19T20:40:12.251Z,2.90
2023-02-19T20:42:41.000Z,2.60
2023-02-19T20:45:09.499Z,4.60
2023-02-19T20:47:40.257Z,1.80
2023-02-19T20:50:09.020Z,3.20
2023-02-19T20:52:37.407Z,1.70
2023-02-19T20:55:06.440Z,3.30
2023-02-19T20:57:35.102Z,7.90
2023-02-19T21:00:05.012Z,3.00
2023-02-19T21:02:33.418Z,2.90
2023-02-19T21:05:02.214Z,2.80
2023-02-19T21:07:31.101Z,2.60
2023-02-19T21:09:59.581Z,2.10
2023-02-19T21:12:27.959Z,1.40
2023-02-19T21:14:56.245Z,2.20
2023-02-19T21:17:24.726Z,3.00
2023-02-19T21:19:53.117Z,4.40
2023-02-19T21:22:21.495Z,4.90
2023-02-19T21:24:52.232Z,1.50
2023-02-19T21:27:20.939Z,4.10
2023-02-19T21:29:49.314Z,4.50
2023-02-19T21:32:17.941Z,2.90
2023-02-19T21:34:46.386Z,2.20
2023-02-19T21:37:14.874Z,3.70
2023-02-19T21:39:43.254Z,2.00
2023-02-19T21:42:11.550Z,3.50
2023-02-19T21:44:42.990Z,2.90
2023-02-19T21:47:12.954Z,5.80
2023-02-19T21:49:43.239Z,5.50
2023-02-19T21:52:11.830Z,3.60
2023-02-19T21:54:40.320Z,2.60
2023-02-19T21:57:09.675Z,2.00
2023-02-19T21:59:37.924Z,4.00
2023-02-19T22:02:06.705Z,4.60
2023-02-19T22:04:35.095Z,2.40
2023-02-19T22:07:03.981Z,7.40
2023-02-19T22:09:32.262Z,3.30
2023-02-19T22:12:00.647Z,3.60
2023-02-19T22:14:29.125Z,2.50
2023-02-19T22:16:57.534Z,2.70
2023-02-19T22:19:25.995Z,3.10
2023-02-19T22:21:54.487Z,3.80
2023-02-19T22:24:23.079Z,3.80
2023-02-19T22:26:56.377Z,4.30
2023-02-19T22:29:25.176Z,3.40
2023-02-19T22:31:53.601Z,3.80
2023-02-19T22:34:22.340Z,7.30
2023-02-19T22:36:51.049Z,2.40
2023-02-19T22:39:25.663Z,3.60
2023-02-19T22:41:54.310Z,4.60
2023-02-19T22:44:22.747Z,4.60
2023-02-19T22:46:54.921Z,3.70
2023-02-19T22:49:24.485Z,3.90
2023-02-19T22:52:05.916Z,3.90
2023-02-19T22:54:37.886Z,4.80
2023-02-19T22:57:06.452Z,3.40
2023-02-19T22:59:34.851Z,6.50
2023-02-19T23:02:03.229Z,4.00
2023-02-19T23:04:31.475Z,4.30
2023-02-19T23:06:59.898Z,5.20
2023-02-19T23:09:29.508Z,5.30
2023-02-19T23:12:02.886Z,3.90
2023-02-19T23:14:31.294Z,5.10
2023-02-19T23:17:00.168Z,4.70
2023-02-19T23:19:28.575Z,6.60
2023-02-19T23:21:57.191Z,4.70
2023-02-19T23:24:26.066Z,3.80
2023-02-19T23:26:54.773Z,4.70
2023-02-19T23:29:26.820Z,5.00
2023-02-19T23:31:55.374Z,4.60
2023-02-19T23:34:24.713Z,6.60
2023-02-19T23:36:54.734Z,5.60
2023-02-19T23:39:23.221Z,5.80
2023-02-19T23:41:54.505Z,5.70
2023-02-19T23:44:25.519Z,5.50
2023-02-19T23:46:54.709Z,4.60
2023-02-19T23:49:23.301Z,5.00
2023-02-19T23:51:52.000Z,6.20
2023-02-19T23:54:20.688Z,7.30
2023-02-19T23:56:49.399Z,4.70
2023-02-19T23:59:17.759Z,5.60
